sensor_id;sensor_type;location;lat;lon;timestamp;pressure;altitude;pressure_sealevel;temperature;humidity
74716;BME280;63234;37.558;127.058;2024-02-26T00:00:04;98160.16;;;8.45;61.96
74716;BME280;63234;37.558;127.058;2024-02-26T00:02:34;98149.91;;;8.21;64.58
74716;BME280;63234;37.558;127.058;2024-02-26T00:05:04;98158.56;;;8.07;65.07
74716;BME280;63234;37.558;127.058;2024-02-26T00:07:30;98158.44;;;7.91;66.36
74716;BME280;63234;37.558;127.058;2024-02-26T00:09:55;98159.44;;;7.85;66.70
74716;BME280;63234;37.558;127.058;2024-02-26T00:12:20;98167.31;;;7.80;67.47
74716;BME280;63234;37.558;127.058;2024-02-26T00:14:46;98160.41;;;7.79;65.64
74716;BME280;63234;37.558;127.058;2024-02-26T00:17:12;98154.03;;;7.75;68.41
74716;BME280;63234;37.558;127.058;2024-02-26T00:19:37;98148.81;;;7.53;71.16
74716;BME280;63234;37.558;127.058;2024-02-26T00:22:02;98146.88;;;7.43;70.89
74716;BME280;63234;37.558;127.058;2024-02-26T00:24:28;98152.09;;;7.38;73.26
74716;BME280;63234;37.558;127.058;2024-02-26T00:26:53;98147.66;;;7.44;69.26
74716;BME280;63234;37.558;127.058;2024-02-26T00:29:19;98142.88;;;7.41;70.08
74716;BME280;63234;37.558;127.058;2024-02-26T00:31:45;98152.59;;;7.35;70.14
74716;BME280;63234;37.558;127.058;2024-02-26T00:34:10;98161.72;;;7.49;70.18
74716;BME280;63234;37.558;127.058;2024-02-26T00:36:35;98174.13;;;7.71;67.62
74716;BME280;63234;37.558;127.058;2024-02-26T00:39:01;98172.16;;;7.61;70.43
74716;BME280;63234;37.558;127.058;2024-02-26T00:41:26;98177.03;;;7.47;72.46
74716;BME280;63234;37.558;127.058;2024-02-26T00:43:52;98184.59;;;7.39;72.08
74716;BME280;63234;37.558;127.058;2024-02-26T00:46:17;98178.66;;;7.26;73.26
74716;BME280;63234;37.558;127.058;2024-02-26T00:48:42;98185.91;;;7.14;74.63
74716;BME280;63234;37.558;127.058;2024-02-26T00:51:08;98179.47;;;7.05;74.94
74716;BME280;63234;37.558;127.058;2024-02-26T00:53:33;98183.00;;;6.94;76.41
74716;BME280;63234;37.558;127.058;2024-02-26T00:55:59;98180.56;;;6.87;77.39
74716;BME280;63234;37.558;127.058;2024-02-26T00:58:25;98184.34;;;6.74;79.77
74716;BME280;63234;37.558;127.058;2024-02-26T01:00:51;98187.16;;;6.68;80.20
74716;BME280;63234;37.558;127.058;2024-02-26T01:03:17;98191.28;;;6.58;80.48
74716;BME280;63234;37.558;127.058;2024-02-26T01:05:43;98182.78;;;6.56;82.10
74716;BME280;63234;37.558;127.058;2024-02-26T01:08:08;98200.38;;;6.51;82.68
74716;BME280;63234;37.558;127.058;2024-02-26T01:10:33;98198.09;;;6.54;81.09
74716;BME280;63234;37.558;127.058;2024-02-26T01:12:59;98204.38;;;6.53;82.28
74716;BME280;63234;37.558;127.058;2024-02-26T01:15:24;98199.50;;;6.45;84.12
74716;BME280;63234;37.558;127.058;2024-02-26T01:17:50;98195.28;;;6.44;84.19
74716;BME280;63234;37.558;127.058;2024-02-26T01:20:16;98203.94;;;6.39;84.15
74716;BME280;63234;37.558;127.058;2024-02-26T01:22:43;98195.34;;;6.32;83.92
74716;BME280;63234;37.558;127.058;2024-02-26T01:25:08;98196.63;;;6.30;84.54
74716;BME280;63234;37.558;127.058;2024-02-26T01:27:35;98196.31;;;6.26;84.90
74716;BME280;63234;37.558;127.058;2024-02-26T01:30:02;98197.69;;;6.29;84.72
74716;BME280;63234;37.558;127.058;2024-02-26T01:32:29;98198.41;;;6.24;85.21
74716;BME280;63234;37.558;127.058;2024-02-26T01:34:54;98189.63;;;6.18;86.32
74716;BME280;63234;37.558;127.058;2024-02-26T01:37:19;98188.16;;;6.11;87.44
74716;BME280;63234;37.558;127.058;2024-02-26T01:39:45;98188.94;;;6.11;87.37
74716;BME280;63234;37.558;127.058;2024-02-26T01:42:10;98180.72;;;6.08;87.67
74716;BME280;63234;37.558;127.058;2024-02-26T01:44:36;98182.00;;;6.05;88.12
74716;BME280;63234;37.558;127.058;2024-02-26T01:47:04;98187.28;;;6.05;88.02
74716;BME280;63234;37.558;127.058;2024-02-26T01:49:29;98177.84;;;6.09;87.24
74716;BME280;63234;37.558;127.058;2024-02-26T01:51:55;98178.03;;;6.03;88.05
74716;BME280;63234;37.558;127.058;2024-02-26T01:54:22;98176.19;;;6.03;87.61
74716;BME280;63234;37.558;127.058;2024-02-26T01:56:48;98178.25;;;6.01;87.93
74716;BME280;63234;37.558;127.058;2024-02-26T01:59:14;98167.84;;;6.11;88.41
74716;BME280;63234;37.558;127.058;2024-02-26T02:01:41;98171.84;;;6.14;89.26
74716;BME280;63234;37.558;127.058;2024-02-26T02:04:09;98166.41;;;6.20;88.82
74716;BME280;63234;37.558;127.058;2024-02-26T02:06:35;98156.31;;;6.17;88.50
74716;BME280;63234;37.558;127.058;2024-02-26T02:09:01;98154.09;;;6.09;87.96
74716;BME280;63234;37.558;127.058;2024-02-26T02:11:32;98143.25;;;6.06;87.58
74716;BME280;63234;37.558;127.058;2024-02-26T02:13:57;98151.31;;;6.16;89.23
74716;BME280;63234;37.558;127.058;2024-02-26T02:16:23;98149.84;;;6.08;90.49
74716;BME280;63234;37.558;127.058;2024-02-26T02:18:48;98147.22;;;6.08;90.90
74716;BME280;63234;37.558;127.058;2024-02-26T02:21:13;98142.66;;;6.04;91.49
74716;BME280;63234;37.558;127.058;2024-02-26T02:23:39;98145.06;;;6.05;91.73
74716;BME280;63234;37.558;127.058;2024-02-26T02:26:04;98136.50;;;5.98;92.61
74716;BME280;63234;37.558;127.058;2024-02-26T02:28:30;98138.94;;;6.00;92.77
74716;BME280;63234;37.558;127.058;2024-02-26T02:30:56;98139.63;;;5.95;93.29
74716;BME280;63234;37.558;127.058;2024-02-26T02:33:21;98141.31;;;6.01;93.64
74716;BME280;63234;37.558;127.058;2024-02-26T02:35:48;98134.97;;;6.02;93.73
74716;BME280;63234;37.558;127.058;2024-02-26T02:38:13;98131.38;;;6.08;93.99
74716;BME280;63234;37.558;127.058;2024-02-26T02:40:39;98138.97;;;6.05;94.07
74716;BME280;63234;37.558;127.058;2024-02-26T02:43:04;98133.00;;;6.09;93.54
74716;BME280;63234;37.558;127.058;2024-02-26T02:45:30;98121.97;;;6.12;93.16
74716;BME280;63234;37.558;127.058;2024-02-26T02:47:55;98123.47;;;6.08;91.51
74716;BME280;63234;37.558;127.058;2024-02-26T02:50:21;98122.28;;;5.99;90.43
74716;BME280;63234;37.558;127.058;2024-02-26T02:52:46;98123.81;;;5.95;92.07
74716;BME280;63234;37.558;127.058;2024-02-26T02:55:12;98115.09;;;5.94;93.21
74716;BME280;63234;37.558;127.058;2024-02-26T02:57:37;98106.63;;;6.09;93.06
74716;BME280;63234;37.558;127.058;2024-02-26T03:00:07;98111.31;;;6.07;92.99
74716;BME280;63234;37.558;127.058;2024-02-26T03:02:33;98108.06;;;6.00;92.44
74716;BME280;63234;37.558;127.058;2024-02-26T03:05:01;98117.13;;;5.92;93.62
74716;BME280;63234;37.558;127.058;2024-02-26T03:07:27;98125.31;;;6.08;93.08
74716;BME280;63234;37.558;127.058;2024-02-26T03:09:52;98126.72;;;5.82;93.97
74716;BME280;63234;37.558;127.058;2024-02-26T03:12:18;98116.94;;;5.65;95.01
74716;BME280;63234;37.558;127.058;2024-02-26T03:14:43;98114.56;;;5.81;94.37
74716;BME280;63234;37.558;127.058;2024-02-26T03:17:09;98123.13;;;5.88;93.51
74716;BME280;63234;37.558;127.058;2024-02-26T03:19:34;98127.38;;;5.89;93.68
74716;BME280;63234;37.558;127.058;2024-02-26T03:21:59;98122.09;;;5.89;94.03
74716;BME280;63234;37.558;127.058;2024-02-26T03:24:24;98115.22;;;5.88;95.33
74716;BME280;63234;37.558;127.058;2024-02-26T03:26:50;98117.72;;;5.94;95.59
74716;BME280;63234;37.558;127.058;2024-02-26T03:29:17;98119.63;;;5.99;95.89
74716;BME280;63234;37.558;127.058;2024-02-26T03:31:42;98123.88;;;6.00;95.74
74716;BME280;63234;37.558;127.058;2024-02-26T03:34:07;98118.44;;;6.07;96.17
74716;BME280;63234;37.558;127.058;2024-02-26T03:36:33;98123.09;;;6.00;95.76
74716;BME280;63234;37.558;127.058;2024-02-26T03:38:58;98121.78;;;6.02;96.23
74716;BME280;63234;37.558;127.058;2024-02-26T03:41:24;98126.94;;;6.09;95.57
74716;BME280;63234;37.558;127.058;2024-02-26T03:43:49;98129.31;;;6.10;95.03
74716;BME280;63234;37.558;127.058;2024-02-26T03:46:14;98123.72;;;6.07;94.24
74716;BME280;63234;37.558;127.058;2024-02-26T03:48:42;98123.31;;;5.98;92.86
74716;BME280;63234;37.558;127.058;2024-02-26T03:51:09;98125.00;;;6.04;93.91
74716;BME280;63234;37.558;127.058;2024-02-26T03:53:35;98129.22;;;5.88;93.34
74716;BME280;63234;37.558;127.058;2024-02-26T03:56:05;98130.31;;;5.75;93.45
74716;BME280;63234;37.558;127.058;2024-02-26T03:58:30;98128.16;;;5.72;92.99
74716;BME280;63234;37.558;127.058;2024-02-26T04:00:56;98128.66;;;5.69;94.62
74716;BME280;63234;37.558;127.058;2024-02-26T04:03:21;98141.25;;;5.84;94.82
74716;BME280;63234;37.558;127.058;2024-02-26T04:05:46;98143.56;;;5.81;95.51
74716;BME280;63234;37.558;127.058;2024-02-26T04:08:12;98143.19;;;5.89;95.98
74716;BME280;63234;37.558;127.058;2024-02-26T04:10:37;98147.25;;;5.80;95.17
74716;BME280;63234;37.558;127.058;2024-02-26T04:13:04;98146.28;;;5.69;95.80
74716;BME280;63234;37.558;127.058;2024-02-26T04:15:30;98155.72;;;5.65;96.21
74716;BME280;63234;37.558;127.058;2024-02-26T04:17:56;98163.31;;;5.61;96.33
74716;BME280;63234;37.558;127.058;2024-02-26T04:20:21;98156.91;;;5.57;96.98
74716;BME280;63234;37.558;127.058;2024-02-26T04:22:47;98167.19;;;5.59;97.14
74716;BME280;63234;37.558;127.058;2024-02-26T04:25:12;98169.69;;;5.65;95.38
74716;BME280;63234;37.558;127.058;2024-02-26T04:27:38;98173.13;;;5.66;95.06
74716;BME280;63234;37.558;127.058;2024-02-26T04:30:05;98170.84;;;5.69;94.83
74716;BME280;63234;37.558;127.058;2024-02-26T04:32:30;98161.56;;;5.67;94.71
74716;BME280;63234;37.558;127.058;2024-02-26T04:34:55;98168.19;;;5.69;95.00
74716;BME280;63234;37.558;127.058;2024-02-26T04:37:21;98166.84;;;5.67;95.43
74716;BME280;63234;37.558;127.058;2024-02-26T04:39:46;98167.16;;;5.70;95.34
74716;BME280;63234;37.558;127.058;2024-02-26T04:42:11;98168.66;;;5.66;95.67
74716;BME280;63234;37.558;127.058;2024-02-26T04:44:37;98169.47;;;5.67;95.80
74716;BME280;63234;37.558;127.058;2024-02-26T04:47:02;98172.31;;;5.65;95.68
74716;BME280;63234;37.558;127.058;2024-02-26T04:49:28;98171.78;;;5.63;95.88
74716;BME280;63234;37.558;127.058;2024-02-26T04:51:53;98174.63;;;5.62;96.47
74716;BME280;63234;37.558;127.058;2024-02-26T04:54:19;98173.53;;;5.58;97.00
74716;BME280;63234;37.558;127.058;2024-02-26T04:56:44;98176.47;;;5.61;98.28
74716;BME280;63234;37.558;127.058;2024-02-26T04:59:09;98176.16;;;5.58;97.90
74716;BME280;63234;37.558;127.058;2024-02-26T05:01:35;98183.81;;;5.59;98.76
74716;BME280;63234;37.558;127.058;2024-02-26T05:04:02;98178.53;;;5.59;98.07
74716;BME280;63234;37.558;127.058;2024-02-26T05:06:28;98181.50;;;5.63;98.17
74716;BME280;63234;37.558;127.058;2024-02-26T05:08:54;98176.69;;;5.60;99.09
74716;BME280;63234;37.558;127.058;2024-02-26T05:11:19;98188.41;;;5.64;98.85
74716;BME280;63234;37.558;127.058;2024-02-26T05:13:44;98177.91;;;5.69;98.54
74716;BME280;63234;37.558;127.058;2024-02-26T05:16:10;98184.72;;;5.65;98.48
74716;BME280;63234;37.558;127.058;2024-02-26T05:18:36;98181.84;;;5.66;98.58
74716;BME280;63234;37.558;127.058;2024-02-26T05:21:01;98186.09;;;5.67;98.76
74716;BME280;63234;37.558;127.058;2024-02-26T05:23:28;98174.50;;;5.68;98.44
74716;BME280;63234;37.558;127.058;2024-02-26T05:25:54;98172.41;;;5.70;98.77
74716;BME280;63234;37.558;127.058;2024-02-26T05:28:19;98174.00;;;5.71;98.89
74716;BME280;63234;37.558;127.058;2024-02-26T05:30:45;98178.16;;;5.67;98.65
74716;BME280;63234;37.558;127.058;2024-02-26T05:33:11;98172.09;;;5.67;99.07
74716;BME280;63234;37.558;127.058;2024-02-26T05:35:37;98172.56;;;5.64;99.31
74716;BME280;63234;37.558;127.058;2024-02-26T05:38:02;98179.75;;;5.68;99.51
74716;BME280;63234;37.558;127.058;2024-02-26T05:40:28;98181.94;;;5.71;99.35
74716;BME280;63234;37.558;127.058;2024-02-26T05:42:55;98177.69;;;5.70;99.30
74716;BME280;63234;37.558;127.058;2024-02-26T05:45:20;98180.44;;;5.75;98.98
74716;BME280;63234;37.558;127.058;2024-02-26T05:47:47;98183.53;;;5.72;98.40
74716;BME280;63234;37.558;127.058;2024-02-26T05:50:12;98195.78;;;5.79;98.68
74716;BME280;63234;37.558;127.058;2024-02-26T05:52:38;98189.69;;;5.78;97.97
74716;BME280;63234;37.558;127.058;2024-02-26T05:55:04;98193.38;;;5.77;98.66
74716;BME280;63234;37.558;127.058;2024-02-26T05:57:31;98202.88;;;5.78;98.75
74716;BME280;63234;37.558;127.058;2024-02-26T05:59:56;98194.75;;;5.80;98.33
74716;BME280;63234;37.558;127.058;2024-02-26T06:02:22;98196.66;;;5.84;98.00
74716;BME280;63234;37.558;127.058;2024-02-26T06:04:47;98188.34;;;5.75;97.97
74716;BME280;63234;37.558;127.058;2024-02-26T06:07:12;98192.47;;;5.71;98.87
74716;BME280;63234;37.558;127.058;2024-02-26T06:09:38;98189.03;;;5.71;98.84
74716;BME280;63234;37.558;127.058;2024-02-26T06:12:05;98204.41;;;5.74;98.98
74716;BME280;63234;37.558;127.058;2024-02-26T06:14:30;98196.38;;;5.69;98.96
74716;BME280;63234;37.558;127.058;2024-02-26T06:16:55;98198.53;;;5.72;99.05
74716;BME280;63234;37.558;127.058;2024-02-26T06:19:21;98203.13;;;5.77;98.84
74716;BME280;63234;37.558;127.058;2024-02-26T06:21:46;98211.72;;;5.72;99.42
74716;BME280;63234;37.558;127.058;2024-02-26T06:24:11;98215.66;;;5.69;99.07
74716;BME280;63234;37.558;127.058;2024-02-26T06:26:37;98220.53;;;5.78;98.97
74716;BME280;63234;37.558;127.058;2024-02-26T06:29:02;98233.19;;;5.75;99.66
74716;BME280;63234;37.558;127.058;2024-02-26T06:31:27;98223.44;;;5.76;99.85
74716;BME280;63234;37.558;127.058;2024-02-26T06:33:53;98224.88;;;5.84;99.89
74716;BME280;63234;37.558;127.058;2024-02-26T06:36:19;98225.34;;;5.81;99.58
74716;BME280;63234;37.558;127.058;2024-02-26T06:38:44;98221.59;;;5.77;99.26
74716;BME280;63234;37.558;127.058;2024-02-26T06:41:10;98228.91;;;5.74;99.51
74716;BME280;63234;37.558;127.058;2024-02-26T06:43:36;98232.81;;;5.72;99.45
74716;BME280;63234;37.558;127.058;2024-02-26T06:46:02;98232.34;;;5.75;99.51
74716;BME280;63234;37.558;127.058;2024-02-26T06:48:27;98229.25;;;5.78;99.97
74716;BME280;63234;37.558;127.058;2024-02-26T06:50:52;98236.78;;;5.86;99.70
74716;BME280;63234;37.558;127.058;2024-02-26T06:53:18;98237.69;;;5.92;99.30
74716;BME280;63234;37.558;127.058;2024-02-26T06:55:44;98247.88;;;6.00;99.38
74716;BME280;63234;37.558;127.058;2024-02-26T06:58:09;98246.00;;;6.12;99.08
74716;BME280;63234;37.558;127.058;2024-02-26T07:00:35;98244.06;;;6.08;98.50
74716;BME280;63234;37.558;127.058;2024-02-26T07:03:00;98242.56;;;6.12;99.03
74716;BME280;63234;37.558;127.058;2024-02-26T07:05:27;98251.81;;;6.14;99.15
74716;BME280;63234;37.558;127.058;2024-02-26T07:07:52;98250.72;;;6.27;98.77
74716;BME280;63234;37.558;127.058;2024-02-26T07:10:18;98244.88;;;6.25;98.63
74716;BME280;63234;37.558;127.058;2024-02-26T07:12:43;98250.00;;;6.32;99.02
74716;BME280;63234;37.558;127.058;2024-02-26T07:15:09;98247.34;;;6.32;97.92
74716;BME280;63234;37.558;127.058;2024-02-26T07:17:35;98242.66;;;6.34;97.65
74716;BME280;63234;37.558;127.058;2024-02-26T07:20:00;98249.84;;;6.38;97.92
74716;BME280;63234;37.558;127.058;2024-02-26T07:22:25;98254.41;;;6.43;98.41
74716;BME280;63234;37.558;127.058;2024-02-26T07:24:51;98246.72;;;6.41;97.81
74716;BME280;63234;37.558;127.058;2024-02-26T07:27:17;98248.81;;;6.39;97.21
74716;BME280;63234;37.558;127.058;2024-02-26T07:29:43;98245.13;;;6.40;97.20
74716;BME280;63234;37.558;127.058;2024-02-26T07:32:09;98247.28;;;6.43;98.30
74716;BME280;63234;37.558;127.058;2024-02-26T07:34:35;98250.72;;;6.44;97.76
74716;BME280;63234;37.558;127.058;2024-02-26T07:37:02;98254.06;;;6.56;97.54
74716;BME280;63234;37.558;127.058;2024-02-26T07:39:28;98262.88;;;6.62;97.05
74716;BME280;63234;37.558;127.058;2024-02-26T07:41:53;98261.13;;;6.68;97.25
74716;BME280;63234;37.558;127.058;2024-02-26T07:44:19;98260.88;;;6.69;96.50
74716;BME280;63234;37.558;127.058;2024-02-26T07:46:44;98263.03;;;6.89;96.43
74716;BME280;63234;37.558;127.058;2024-02-26T07:49:09;98270.84;;;7.01;96.25
74716;BME280;63234;37.558;127.058;2024-02-26T07:51:35;98272.03;;;7.10;96.45
74716;BME280;63234;37.558;127.058;2024-02-26T07:54:00;98265.50;;;7.18;96.16
74716;BME280;63234;37.558;127.058;2024-02-26T07:56:26;98263.31;;;7.09;96.49
74716;BME280;63234;37.558;127.058;2024-02-26T07:58:51;98248.06;;;7.17;96.63
74716;BME280;63234;37.558;127.058;2024-02-26T08:01:17;98250.16;;;7.15;96.93
74716;BME280;63234;37.558;127.058;2024-02-26T08:03:42;98251.75;;;7.16;96.63
74716;BME280;63234;37.558;127.058;2024-02-26T08:06:08;98257.53;;;7.12;96.50
74716;BME280;63234;37.558;127.058;2024-02-26T08:08:33;98263.94;;;7.17;96.25
74716;BME280;63234;37.558;127.058;2024-02-26T08:10:59;98265.00;;;7.38;95.77
74716;BME280;63234;37.558;127.058;2024-02-26T08:13:24;98268.50;;;7.43;95.74
74716;BME280;63234;37.558;127.058;2024-02-26T08:15:50;98261.72;;;7.52;94.84
74716;BME280;63234;37.558;127.058;2024-02-26T08:18:15;98262.09;;;7.39;95.68
74716;BME280;63234;37.558;127.058;2024-02-26T08:20:41;98263.50;;;7.25;95.66
74716;BME280;63234;37.558;127.058;2024-02-26T08:23:06;98284.41;;;7.26;95.53
74716;BME280;63234;37.558;127.058;2024-02-26T08:25:32;98283.59;;;7.04;98.20
74716;BME280;63234;37.558;127.058;2024-02-26T08:27:58;98298.16;;;7.06;98.64
74716;BME280;63234;37.558;127.058;2024-02-26T08:30:23;98298.50;;;7.32;96.67
74716;BME280;63234;37.558;127.058;2024-02-26T08:32:49;98290.88;;;7.35;97.60
74716;BME280;63234;37.558;127.058;2024-02-26T08:35:14;98294.75;;;7.50;96.47
74716;BME280;63234;37.558;127.058;2024-02-26T08:37:40;98298.28;;;7.55;96.64
74716;BME280;63234;37.558;127.058;2024-02-26T08:40:06;98287.88;;;7.71;96.39
74716;BME280;63234;37.558;127.058;2024-02-26T08:42:32;98296.22;;;7.85;95.50
74716;BME280;63234;37.558;127.058;2024-02-26T08:44:57;98291.25;;;7.88;95.02
74716;BME280;63234;37.558;127.058;2024-02-26T08:47:25;98300.41;;;7.80;93.99
74716;BME280;63234;37.558;127.058;2024-02-26T08:49:50;98297.06;;;7.90;94.88
74716;BME280;63234;37.558;127.058;2024-02-26T08:52:16;98310.44;;;8.00;94.28
74716;BME280;63234;37.558;127.058;2024-02-26T08:54:41;98310.63;;;8.21;93.73
74716;BME280;63234;37.558;127.058;2024-02-26T08:57:07;98307.94;;;8.16;93.36
74716;BME280;63234;37.558;127.058;2024-02-26T08:59:32;98313.88;;;8.28;91.20
74716;BME280;63234;37.558;127.058;2024-02-26T09:01:57;98314.88;;;8.49;91.14
74716;BME280;63234;37.558;127.058;2024-02-26T09:04:22;98316.50;;;8.50;91.76
74716;BME280;63234;37.558;127.058;2024-02-26T09:06:48;98317.34;;;8.56;90.24
74716;BME280;63234;37.558;127.058;2024-02-26T09:09:14;98310.75;;;8.58;90.19
74716;BME280;63234;37.558;127.058;2024-02-26T09:11:39;98313.75;;;8.72;89.58
74716;BME280;63234;37.558;127.058;2024-02-26T09:14:05;98310.56;;;8.70;88.90
74716;BME280;63234;37.558;127.058;2024-02-26T09:16:30;98317.72;;;8.69;88.62
74716;BME280;63234;37.558;127.058;2024-02-26T09:18:56;98320.97;;;8.82;88.07
74716;BME280;63234;37.558;127.058;2024-02-26T09:21:21;98310.66;;;8.80;88.88
74716;BME280;63234;37.558;127.058;2024-02-26T09:23:49;98309.56;;;9.18;87.62
74716;BME280;63234;37.558;127.058;2024-02-26T09:26:15;98319.78;;;9.42;85.99
74716;BME280;63234;37.558;127.058;2024-02-26T09:28:40;98325.56;;;9.86;85.34
74716;BME280;63234;37.558;127.058;2024-02-26T09:31:05;98319.81;;;10.20;82.28
74716;BME280;63234;37.558;127.058;2024-02-26T09:33:35;98319.25;;;10.13;81.69
74716;BME280;63234;37.558;127.058;2024-02-26T09:36:00;98326.97;;;10.25;84.15
74716;BME280;63234;37.558;127.058;2024-02-26T09:38:28;98324.84;;;10.17;82.07
74716;BME280;63234;37.558;127.058;2024-02-26T09:40:56;98327.50;;;10.22;82.45
74716;BME280;63234;37.558;127.058;2024-02-26T09:43:22;98326.47;;;10.28;81.69
74716;BME280;63234;37.558;127.058;2024-02-26T09:45:53;98319.63;;;10.47;81.01
74716;BME280;63234;37.558;127.058;2024-02-26T09:48:18;98329.44;;;10.47;81.13
74716;BME280;63234;37.558;127.058;2024-02-26T09:50:45;98324.03;;;10.16;81.62
74716;BME280;63234;37.558;127.058;2024-02-26T09:53:11;98334.44;;;10.23;82.14
74716;BME280;63234;37.558;127.058;2024-02-26T09:55:37;98330.97;;;10.17;81.01
74716;BME280;63234;37.558;127.058;2024-02-26T09:58:04;98341.25;;;9.98;81.11
74716;BME280;63234;37.558;127.058;2024-02-26T10:00:31;98349.22;;;9.98;80.98
74716;BME280;63234;37.558;127.058;2024-02-26T10:03:04;98352.41;;;10.00;82.09
74716;BME280;63234;37.558;127.058;2024-02-26T10:05:31;98350.13;;;10.34;80.82
74716;BME280;63234;37.558;127.058;2024-02-26T10:07:57;98346.16;;;10.37;79.94
74716;BME280;63234;37.558;127.058;2024-02-26T10:10:24;98355.50;;;11.01;79.99
74716;BME280;63234;37.558;127.058;2024-02-26T10:12:51;98356.50;;;11.41;76.95
74716;BME280;63234;37.558;127.058;2024-02-26T10:15:16;98348.50;;;11.51;75.19
74716;BME280;63234;37.558;127.058;2024-02-26T10:17:42;98356.72;;;11.70;76.90
74716;BME280;63234;37.558;127.058;2024-02-26T10:20:15;98358.03;;;12.32;73.13
74716;BME280;63234;37.558;127.058;2024-02-26T10:22:41;98365.56;;;12.70;72.57
74716;BME280;63234;37.558;127.058;2024-02-26T10:25:08;98377.38;;;12.53;71.41
74716;BME280;63234;37.558;127.058;2024-02-26T10:27:34;98378.47;;;11.92;73.91
74716;BME280;63234;37.558;127.058;2024-02-26T10:30:18;98379.34;;;11.73;74.10
74716;BME280;63234;37.558;127.058;2024-02-26T10:32:45;98374.66;;;12.14;72.91
74716;BME280;63234;37.558;127.058;2024-02-26T10:35:12;98367.41;;;13.03;71.02
74716;BME280;63234;37.558;127.058;2024-02-26T10:37:39;98371.75;;;13.82;68.30
74716;BME280;63234;37.558;127.058;2024-02-26T10:40:05;98365.53;;;14.29;66.44
74716;BME280;63234;37.558;127.058;2024-02-26T10:42:31;98363.91;;;14.52;64.26
74716;BME280;63234;37.558;127.058;2024-02-26T10:44:58;98364.41;;;13.92;64.86
74716;BME280;63234;37.558;127.058;2024-02-26T10:47:24;98375.19;;;15.01;65.07
74716;BME280;63234;37.558;127.058;2024-02-26T10:49:50;98384.56;;;15.17;62.61
74716;BME280;63234;37.558;127.058;2024-02-26T10:52:18;98388.75;;;14.34;62.99
74716;BME280;63234;37.558;127.058;2024-02-26T10:54:47;98377.69;;;13.49;66.79
74716;BME280;63234;37.558;127.058;2024-02-26T10:57:13;98384.56;;;13.56;67.81
74716;BME280;63234;37.558;127.058;2024-02-26T10:59:39;98384.44;;;14.14;65.97
74716;BME280;63234;37.558;127.058;2024-02-26T11:02:08;98385.38;;;14.23;66.30
74716;BME280;63234;37.558;127.058;2024-02-26T11:04:35;98382.28;;;14.16;64.84
74716;BME280;63234;37.558;127.058;2024-02-26T11:07:00;98381.16;;;14.60;62.49
74716;BME280;63234;37.558;127.058;2024-02-26T11:09:27;98383.97;;;14.31;65.71
74716;BME280;63234;37.558;127.058;2024-02-26T11:11:53;98397.66;;;13.81;65.13
74716;BME280;63234;37.558;127.058;2024-02-26T11:14:20;98393.97;;;14.01;66.51
74716;BME280;63234;37.558;127.058;2024-02-26T11:16:47;98402.44;;;14.70;64.84
74716;BME280;63234;37.558;127.058;2024-02-26T11:19:13;98409.28;;;14.57;62.44
74716;BME280;63234;37.558;127.058;2024-02-26T11:21:39;98403.31;;;14.41;64.12
74716;BME280;63234;37.558;127.058;2024-02-26T11:24:08;98389.22;;;13.45;67.14
74716;BME280;63234;37.558;127.058;2024-02-26T11:26:40;98400.03;;;14.07;65.14
74716;BME280;63234;37.558;127.058;2024-02-26T11:29:09;98399.00;;;14.45;62.55
74716;BME280;63234;37.558;127.058;2024-02-26T11:31:37;98387.63;;;14.16;63.25
74716;BME280;63234;37.558;127.058;2024-02-26T11:34:03;98390.31;;;14.35;64.19
74716;BME280;63234;37.558;127.058;2024-02-26T11:36:28;98399.88;;;14.41;63.75
74716;BME280;63234;37.558;127.058;2024-02-26T11:38:55;98398.91;;;14.32;63.95
74716;BME280;63234;37.558;127.058;2024-02-26T11:41:20;98398.88;;;14.56;63.67
74716;BME280;63234;37.558;127.058;2024-02-26T11:46:30;98391.03;;;14.21;65.24
74716;BME280;63234;37.558;127.058;2024-02-26T11:48:58;98391.06;;;14.40;63.83
74716;BME280;63234;37.558;127.058;2024-02-26T11:51:26;98392.41;;;14.38;65.14
74716;BME280;63234;37.558;127.058;2024-02-26T11:53:52;98386.50;;;14.79;64.83
74716;BME280;63234;37.558;127.058;2024-02-26T12:01:44;98381.56;;;14.10;61.99
74716;BME280;63234;37.558;127.058;2024-02-26T12:04:24;98379.53;;;14.21;62.53
74716;BME280;63234;37.558;127.058;2024-02-26T12:07:01;98378.09;;;14.10;63.77
74716;BME280;63234;37.558;127.058;2024-02-26T12:12:03;98370.09;;;14.29;63.03
74716;BME280;63234;37.558;127.058;2024-02-26T12:14:28;98369.13;;;14.00;62.77
74716;BME280;63234;37.558;127.058;2024-02-26T12:16:55;98364.31;;;14.21;62.96
74716;BME280;63234;37.558;127.058;2024-02-26T12:19:21;98365.63;;;14.43;62.22
74716;BME280;63234;37.558;127.058;2024-02-26T12:21:51;98366.94;;;14.64;60.21
74716;BME280;63234;37.558;127.058;2024-02-26T12:24:18;98368.50;;;14.46;59.62
74716;BME280;63234;37.558;127.058;2024-02-26T12:26:43;98379.25;;;14.41;58.90
74716;BME280;63234;37.558;127.058;2024-02-26T12:29:09;98380.06;;;14.42;61.74
74716;BME280;63234;37.558;127.058;2024-02-26T12:31:36;98377.31;;;14.28;61.87
74716;BME280;63234;37.558;127.058;2024-02-26T12:34:03;98377.63;;;14.45;62.05
74716;BME280;63234;37.558;127.058;2024-02-26T12:36:29;98372.47;;;14.49;61.91
74716;BME280;63234;37.558;127.058;2024-02-26T12:38:54;98379.19;;;14.46;62.84
74716;BME280;63234;37.558;127.058;2024-02-26T12:41:20;98382.84;;;14.56;63.23
74716;BME280;63234;37.558;127.058;2024-02-26T12:43:46;98380.13;;;14.37;64.40
74716;BME280;63234;37.558;127.058;2024-02-26T12:46:11;98382.53;;;14.57;63.13
74716;BME280;63234;37.558;127.058;2024-02-26T12:48:38;98380.88;;;14.80;61.33
74716;BME280;63234;37.558;127.058;2024-02-26T12:51:04;98382.41;;;14.67;62.15